Time;durP1;ratioP1;P1;durP2;ratioP2;P2;SDS_P1;SDS_P2;PMS_P1;PMS_P2;Temp;Humidity;BMP_temperature;BMP_pressure;BME280_temperature;BME280_humidity;BME280_pressure;Samples;Min_cycle;Max_cycle;Signal;HPM_P1;HPM_P2
2021/08/21 00:01:48;;;;;;;2.90;2.27;;;23.90;94.10;;;;;;5041254;28;20481;-42
2021/08/21 00:04:19;;;;;;;2.90;2.43;;;23.90;94.30;;;;;;5041454;28;20498;-42
2021/08/21 00:06:51;;;;;;;2.90;2.50;;;23.90;94.30;;;;;;5040751;28;20442;-42
2021/08/21 00:09:22;;;;;;;3.97;2.80;;;24.00;94.50;;;;;;5041982;28;20430;-42
2021/08/21 00:11:53;;;;;;;5.67;2.40;;;24.00;94.10;;;;;;5039555;28;20461;-42
2021/08/21 00:14:24;;;;;;;2.80;2.20;;;23.90;94.70;;;;;;5040357;28;20530;-42
2021/08/21 00:16:55;;;;;;;2.73;2.53;;;24.10;95.10;;;;;;5041078;28;20551;-42
2021/08/21 00:19:28;;;;;;;2.93;2.63;;;23.90;94.10;;;;;;5043067;27;20492;-41
2021/08/21 00:22:01;;;;;;;3.27;2.67;;;24.00;94.30;;;;;;5039672;28;20438;-42
2021/08/21 00:24:32;;;;;;;3.90;3.03;;;23.80;93.60;;;;;;5041109;28;20449;-41
2021/08/21 00:27:03;;;;;;;3.87;2.53;;;23.80;94.00;;;;;;5039355;28;20458;-41
2021/08/21 00:29:34;;;;;;;2.70;2.27;;;23.80;93.80;;;;;;5041026;28;20503;-42
2021/08/21 00:32:06;;;;;;;2.50;2.30;;;23.70;94.30;;;;;;5048441;28;20486;-42
2021/08/21 00:34:37;;;;;;;3.60;2.50;;;23.50;94.70;;;;;;5046279;28;20483;-42
2021/08/21 00:37:09;;;;;;;4.10;2.50;;;23.40;95.00;;;;;;5039980;28;20444;-41
2021/08/21 00:39:41;;;;;;;3.67;2.50;;;23.40;95.10;;;;;;5041084;28;20428;-42
2021/08/21 00:42:12;;;;;;;2.50;2.30;;;23.40;94.80;;;;;;5046093;28;20445;-43
2021/08/21 00:44:43;;;;;;;3.07;2.50;;;23.20;95.70;;;;;;5042447;28;20465;-43
2021/08/21 00:47:15;;;;;;;3.20;2.90;;;23.20;96.00;;;;;;5042846;28;20477;-41
2021/08/21 00:49:49;;;;;;;4.13;2.63;;;23.20;95.30;;;;;;5049448;28;20470;-42
2021/08/21 00:52:24;;;;;;;4.00;2.53;;;23.10;96.00;;;;;;5053961;28;20541;-42
2021/08/21 00:54:58;;;;;;;2.50;2.30;;;23.00;95.70;;;;;;5042058;28;20508;-42
2021/08/21 00:57:30;;;;;;;3.00;2.80;;;22.80;96.00;;;;;;5049442;28;20426;-42
2021/08/21 01:00:01;;;;;;;4.30;2.53;;;22.70;96.00;;;;;;5045012;27;20514;-42
2021/08/21 01:02:33;;;;;;;3.73;2.80;;;22.50;97.10;;;;;;5048223;28;20441;-42
2021/08/21 01:05:06;;;;;;;3.23;2.93;;;22.50;96.60;;;;;;5039346;28;20453;-42
2021/08/21 01:07:39;;;;;;;2.53;2.10;;;22.40;97.20;;;;;;5039029;28;20509;-42
2021/08/21 01:10:12;;;;;;;2.07;1.90;;;22.40;97.20;;;;;;5041676;28;20467;-42
2021/08/21 01:12:45;;;;;;;4.17;2.47;;;22.30;97.20;;;;;;5056487;28;20427;-42
2021/08/21 01:15:16;;;;;;;3.27;2.43;;;22.30;96.80;;;;;;5048695;28;20484;-42
2021/08/21 01:17:48;;;;;;;3.47;2.33;;;22.20;97.50;;;;;;5059878;28;20441;-42
2021/08/21 01:20:21;;;;;;;4.13;2.27;;;22.20;97.80;;;;;;5045444;28;20471;-42
2021/08/21 01:22:53;;;;;;;2.40;2.10;;;22.10;97.30;;;;;;5045561;28;20462;-42
2021/08/21 01:25:29;;;;;;;2.30;2.20;;;22.10;97.50;;;;;;5054470;28;20461;-42
2021/08/21 01:28:02;;;;;;;2.97;2.47;;;22.00;97.80;;;;;;5049516;28;20505;-42
2021/08/21 01:30:33;;;;;;;2.73;2.53;;;22.00;98.40;;;;;;5051111;28;20484;-42
2021/08/21 01:33:04;;;;;;;2.80;2.50;;;22.00;97.20;;;;;;5052054;28;20453;-42
2021/08/21 01:35:35;;;;;;;3.00;2.70;;;22.00;96.90;;;;;;5038823;28;20498;-42
2021/08/21 01:38:07;;;;;;;3.27;2.70;;;21.90;97.60;;;;;;5039847;28;20424;-42
2021/08/21 01:40:38;;;;;;;2.73;2.40;;;21.90;97.60;;;;;;5038816;28;20996;-41
2021/08/21 01:43:10;;;;;;;2.10;2.00;;;21.80;97.80;;;;;;5052071;28;20427;-42
2021/08/21 01:45:41;;;;;;;3.03;2.20;;;21.80;97.50;;;;;;5039735;28;20424;-42
2021/08/21 01:48:13;;;;;;;2.27;2.07;;;21.70;97.90;;;;;;5039618;28;20533;-41
2021/08/21 01:50:45;;;;;;;2.10;1.77;;;21.60;98.00;;;;;;5038404;28;20434;-42
2021/08/21 01:53:18;;;;;;;2.10;1.90;;;21.50;98.30;;;;;;5053661;28;20443;-42
2021/08/21 01:55:50;;;;;;;1.83;1.73;;;21.60;97.80;;;;;;5057270;28;20427;-42
2021/08/21 01:58:23;;;;;;;1.90;1.80;;;21.60;97.50;;;;;;5039251;28;20457;-40
2021/08/21 02:00:54;;;;;;;2.03;1.77;;;21.50;97.80;;;;;;5034963;28;20419;-42
2021/08/21 02:03:25;;;;;;;1.70;1.60;;;21.50;97.50;;;;;;5051041;28;20574;-42
2021/08/21 02:05:56;;;;;;;2.50;1.80;;;21.40;97.70;;;;;;5058052;28;20443;-42
2021/08/21 02:08:27;;;;;;;2.27;1.47;;;21.40;98.20;;;;;;5053493;28;20454;-41
2021/08/21 02:10:58;;;;;;;1.60;1.50;;;21.50;97.80;;;;;;5039559;28;20453;-42
2021/08/21 02:13:31;;;;;;;1.87;1.73;;;21.50;97.70;;;;;;5054778;28;20437;-42
2021/08/21 02:16:02;;;;;;;2.10;1.90;;;21.40;98.10;;;;;;5058443;28;21108;-42
2021/08/21 02:18:33;;;;;;;1.60;1.47;;;21.50;98.10;;;;;;5052763;28;20420;-42
2021/08/21 02:21:04;;;;;;;1.63;1.53;;;21.40;98.00;;;;;;5040034;28;20830;-42
2021/08/21 02:23:35;;;;;;;1.47;1.37;;;21.30;98.30;;;;;;5044598;28;20420;-42
2021/08/21 02:26:06;;;;;;;1.80;1.70;;;21.20;98.60;;;;;;5053260;28;20453;-42
2021/08/21 02:28:39;;;;;;;1.73;1.60;;;21.10;98.90;;;;;;5040931;28;20431;-42
2021/08/21 02:31:10;;;;;;;1.50;1.40;;;21.10;98.90;;;;;;5043455;28;20476;-44
2021/08/21 02:33:41;;;;;;;2.43;1.60;;;21.00;98.90;;;;;;5041045;28;20457;-42
2021/08/21 02:36:13;;;;;;;2.10;1.90;;;20.90;99.30;;;;;;5040432;28;20487;-43
2021/08/21 02:38:45;;;;;;;1.63;1.33;;;20.90;99.40;;;;;;5043490;28;20489;-42
2021/08/21 02:41:16;;;;;;;1.73;1.60;;;20.90;99.40;;;;;;5041849;28;20453;-42
2021/08/21 02:43:49;;;;;;;2.80;1.57;;;20.70;99.40;;;;;;5041953;28;20486;-42
2021/08/21 02:46:20;;;;;;;2.00;1.90;;;20.80;99.20;;;;;;5050971;28;20457;-42
2021/08/21 02:48:51;;;;;;;1.40;1.30;;;20.70;99.10;;;;;;5051430;27;20446;-42
2021/08/21 02:51:22;;;;;;;2.00;1.63;;;20.60;99.30;;;;;;5041449;28;20426;-42
2021/08/21 02:53:53;;;;;;;1.90;1.30;;;20.50;99.60;;;;;;5046426;28;20438;-42
2021/08/21 02:56:24;;;;;;;2.37;1.93;;;20.50;99.80;;;;;;5061565;28;20438;-42
2021/08/21 02:58:57;;;;;;;3.80;1.47;;;20.40;99.90;;;;;;5049093;28;20480;-41
2021/08/21 03:01:28;;;;;;;2.70;1.60;;;20.50;99.90;;;;;;5041072;28;20482;-41
2021/08/21 03:03:59;;;;;;;3.27;1.60;;;20.40;99.90;;;;;;5041402;28;20457;-41
2021/08/21 03:06:30;;;;;;;2.10;1.80;;;20.30;99.90;;;;;;5039434;28;20476;-42
2021/08/21 03:09:01;;;;;;;1.60;1.50;;;20.20;99.90;;;;;;5051185;28;20457;-42
2021/08/21 03:11:32;;;;;;;1.90;1.60;;;20.20;99.90;;;;;;5043048;28;20445;-42
2021/08/21 03:14:05;;;;;;;3.60;1.70;;;20.10;99.90;;;;;;5041056;28;20455;-42
2021/08/21 03:16:35;;;;;;;1.50;1.40;;;20.10;99.90;;;;;;5025911;28;20477;-42
2021/08/21 03:19:08;;;;;;;1.50;1.40;;;20.10;99.90;;;;;;5049564;28;20507;-42
2021/08/21 03:21:39;;;;;;;1.40;1.30;;;20.10;99.90;;;;;;5061596;28;20472;-42
2021/08/21 03:24:10;;;;;;;1.60;1.50;;;20.00;99.90;;;;;;5053686;28;20423;-42
2021/08/21 03:26:42;;;;;;;1.93;1.70;;;20.10;99.90;;;;;;5045164;28;20452;-42
2021/08/21 03:29:14;;;;;;;1.47;1.20;;;20.10;99.90;;;;;;5054407;27;20457;-41
2021/08/21 03:31:45;;;;;;;1.90;1.53;;;20.10;99.90;;;;;;5060916;28;20449;-41
2021/08/21 03:34:16;;;;;;;2.13;1.20;;;20.00;99.90;;;;;;5032287;28;20545;-42
2021/08/21 03:36:48;;;;;;;2.97;1.50;;;19.90;99.90;;;;;;5052288;28;21126;-42
2021/08/21 03:39:19;;;;;;;1.13;1.13;;;19.80;99.90;;;;;;5048175;27;20486;-42
2021/08/21 03:41:50;;;;;;;2.50;1.77;;;19.80;99.90;;;;;;5041711;28;20492;-42
2021/08/21 03:44:23;;;;;;;1.73;1.63;;;19.80;99.90;;;;;;5044576;28;20491;-42
2021/08/21 03:46:54;;;;;;;1.60;1.50;;;19.80;99.90;;;;;;5048154;28;20449;-41
2021/08/21 03:49:25;;;;;;;1.83;1.60;;;19.80;99.90;;;;;;5061235;27;20416;-42
2021/08/21 03:51:56;;;;;;;1.70;1.60;;;19.70;99.90;;;;;;5061225;28;21253;-42
2021/08/21 03:54:27;;;;;;;1.57;1.47;;;19.70;99.90;;;;;;5058213;28;20512;-42
2021/08/21 03:56:58;;;;;;;1.30;1.20;;;19.70;99.90;;;;;;5042558;28;20435;-42
2021/08/21 03:59:31;;;;;;;1.53;1.40;;;19.60;99.90;;;;;;5054351;28;20540;-42
2021/08/21 04:02:02;;;;;;;1.50;1.40;;;19.60;99.90;;;;;;5046092;28;20453;-42
2021/08/21 04:04:33;;;;;;;1.50;1.40;;;19.50;99.90;;;;;;5060728;28;20517;-42
2021/08/21 04:07:04;;;;;;;1.47;1.37;;;19.50;99.90;;;;;;5057662;28;20449;-42
2021/08/21 04:09:36;;;;;;;1.53;1.43;;;19.50;99.90;;;;;;5041715;28;20454;-42
2021/08/21 04:12:08;;;;;;;1.60;1.50;;;19.40;99.90;;;;;;5052593;28;20463;-41
2021/08/21 04:14:40;;;;;;;2.00;1.40;;;19.40;99.90;;;;;;5058160;28;20546;-42
2021/08/21 04:17:11;;;;;;;1.40;1.30;;;19.30;99.90;;;;;;5044630;28;20587;-42
2021/08/21 04:19:44;;;;;;;1.23;1.20;;;19.30;99.90;;;;;;5033699;28;20482;-41
2021/08/21 04:22:15;;;;;;;2.20;1.33;;;19.30;99.90;;;;;;5050669;28;20757;-42
2021/08/21 04:24:46;;;;;;;1.10;1.00;;;19.20;99.90;;;;;;5060596;28;20856;-42
2021/08/21 04:27:17;;;;;;;1.53;1.30;;;19.20;99.90;;;;;;5048216;27;20465;-42
2021/08/21 04:29:50;;;;;;;1.30;1.20;;;19.20;99.90;;;;;;5042264;28;20449;-42
2021/08/21 04:32:21;;;;;;;2.23;1.40;;;19.10;99.90;;;;;;5051328;28;20579;-43
2021/08/21 04:34:52;;;;;;;1.50;1.03;;;19.10;99.90;;;;;;5060128;28;20565;-42
2021/08/21 04:37:23;;;;;;;1.20;1.00;;;19.10;99.90;;;;;;5059355;28;20483;-41
2021/08/21 04:39:54;;;;;;;1.40;1.30;;;19.00;99.90;;;;;;5049014;28;20481;-42
2021/08/21 04:42:25;;;;;;;0.80;0.73;;;18.90;99.90;;;;;;5032686;28;20458;-42
2021/08/21 04:44:59;;;;;;;2.07;1.10;;;18.90;99.90;;;;;;5063841;27;20445;-42
2021/08/21 04:47:30;;;;;;;1.53;1.43;;;19.00;99.90;;;;;;5023884;28;20482;-42
2021/08/21 04:50:03;;;;;;;1.27;1.10;;;19.00;99.90;;;;;;5040091;28;20486;-42
2021/08/21 04:52:34;;;;;;;2.33;1.47;;;19.00;99.90;;;;;;5028273;28;20765;-42
2021/08/21 04:55:08;;;;;;;1.67;0.87;;;19.00;99.90;;;;;;5042661;27;20477;-42
2021/08/21 04:57:39;;;;;;;3.73;2.07;;;18.90;99.90;;;;;;5040291;28;20486;-42
2021/08/21 05:00:13;;;;;;;1.10;1.00;;;18.80;99.90;;;;;;5043686;28;20450;-42
2021/08/21 05:02:44;;;;;;;2.20;1.10;;;18.80;99.90;;;;;;5049011;28;20473;-41
2021/08/21 05:05:15;;;;;;;1.47;1.00;;;18.80;99.90;;;;;;5051034;28;20457;-42
2021/08/21 05:07:46;;;;;;;1.63;1.30;;;18.80;99.90;;;;;;5041085;28;20483;-42
2021/08/21 05:10:18;;;;;;;1.60;1.50;;;18.70;99.90;;;;;;5026188;28;20466;-42
2021/08/21 05:12:49;;;;;;;1.23;1.03;;;18.70;99.90;;;;;;5040241;28;20445;-42
2021/08/21 05:15:22;;;;;;;2.17;1.20;;;18.60;99.90;;;;;;5084135;27;20468;-42
2021/08/21 05:17:55;;;;;;;1.50;1.40;;;18.60;99.90;;;;;;5054101;27;20448;-49
2021/08/21 05:20:40;;;;;;;2.03;1.27;;;18.60;99.90;;;;;;5045816;28;20471;-42
2021/08/21 05:23:15;;;;;;;1.70;1.60;;;18.50;99.90;;;;;;5043078;28;20453;-41
2021/08/21 05:25:48;;;;;;;1.43;1.20;;;18.40;99.90;;;;;;5058866;28;20480;-45
2021/08/21 05:28:20;;;;;;;1.20;1.10;;;18.40;99.90;;;;;;5051646;28;20547;-41
2021/08/21 05:30:53;;;;;;;1.67;1.17;;;18.30;99.90;;;;;;5046261;28;20456;-41
2021/08/21 05:33:24;;;;;;;1.50;1.20;;;18.40;99.90;;;;;;5042191;28;20495;-45
2021/08/21 05:35:55;;;;;;;1.07;0.90;;;18.30;99.90;;;;;;5044395;28;20980;-41
2021/08/21 05:38:26;;;;;;;1.70;0.90;;;18.20;99.90;;;;;;5047736;28;20461;-41
2021/08/21 05:40:57;;;;;;;1.23;1.13;;;18.10;99.90;;;;;;5040556;28;20937;-44
2021/08/21 05:43:28;;;;;;;1.17;1.00;;;18.10;99.90;;;;;;5041422;28;20446;-42
2021/08/21 05:46:01;;;;;;;1.33;1.23;;;18.00;99.90;;;;;;5060834;28;20986;-42
2021/08/21 05:48:32;;;;;;;1.73;1.17;;;17.90;99.90;;;;;;5039186;28;20445;-46
2021/08/21 05:51:03;;;;;;;1.53;1.43;;;17.80;99.90;;;;;;5053244;28;20445;-45
2021/08/21 05:53:35;;;;;;;1.10;1.00;;;17.70;99.90;;;;;;5043630;28;20445;-43
2021/08/21 05:56:06;;;;;;;1.50;1.10;;;17.70;99.90;;;;;;5040841;28;20500;-43
2021/08/21 05:58:37;;;;;;;1.67;1.10;;;17.60;99.90;;;;;;5035952;28;20464;-41
2021/08/21 06:01:10;;;;;;;1.70;1.60;;;17.60;99.90;;;;;;5039288;28;20819;-42
2021/08/21 06:03:41;;;;;;;1.40;1.30;;;17.60;99.90;;;;;;5039347;28;20488;-40
2021/08/21 06:06:13;;;;;;;1.27;1.17;;;17.60;99.90;;;;;;5053001;28;20456;-40
2021/08/21 06:08:44;;;;;;;1.27;1.00;;;17.50;99.90;;;;;;5055076;28;20756;-40
2021/08/21 06:11:15;;;;;;;1.83;1.17;;;17.50;99.90;;;;;;5044131;28;20452;-40
2021/08/21 06:13:46;;;;;;;2.50;1.37;;;17.60;99.90;;;;;;5047480;28;20479;-43
2021/08/21 06:16:18;;;;;;;1.20;1.10;;;17.50;99.90;;;;;;5044992;28;20485;-44
2021/08/21 06:18:49;;;;;;;1.60;1.10;;;17.50;99.90;;;;;;5040688;28;20479;-40
2021/08/21 06:21:21;;;;;;;2.00;1.20;;;17.50;99.90;;;;;;5024737;28;20470;-41
2021/08/21 06:23:52;;;;;;;1.20;1.10;;;17.60;99.90;;;;;;5048259;28;20463;-44
2021/08/21 06:26:22;;;;;;;1.50;1.40;;;17.70;99.90;;;;;;5051581;28;20498;-39
2021/08/21 06:28:53;;;;;;;1.80;1.20;;;17.70;99.90;;;;;;5044398;28;20583;-41
2021/08/21 06:31:26;;;;;;;1.40;1.30;;;17.70;99.90;;;;;;5040768;28;20503;-42
2021/08/21 06:33:57;;;;;;;1.17;1.00;;;17.70;99.90;;;;;;5041371;28;20423;-45
2021/08/21 06:36:28;;;;;;;2.07;1.40;;;17.80;99.90;;;;;;5057113;28;20552;-42
2021/08/21 06:38:59;;;;;;;1.00;0.97;;;17.70;99.90;;;;;;5044332;28;20487;-43
2021/08/21 06:41:30;;;;;;;1.87;1.40;;;17.70;99.90;;;;;;5060325;28;20539;-45
2021/08/21 06:44:01;;;;;;;2.50;1.50;;;17.70;99.90;;;;;;5044223;28;20455;-40
2021/08/21 06:46:34;;;;;;;1.80;1.50;;;17.70;99.90;;;;;;5053701;28;20565;-41
2021/08/21 06:49:05;;;;;;;1.43;1.20;;;17.70;99.90;;;;;;5039662;28;20521;-43
2021/08/21 06:51:36;;;;;;;1.10;1.00;;;17.70;99.90;;;;;;5038303;28;20446;-43
2021/08/21 06:54:07;;;;;;;1.27;1.17;;;17.60;99.90;;;;;;5040009;28;20941;-40
2021/08/21 06:56:38;;;;;;;1.13;0.80;;;17.60;99.90;;;;;;5050956;28;20980;-41
2021/08/21 06:59:09;;;;;;;1.47;1.30;;;17.60;99.90;;;;;;5056599;28;20469;-46
2021/08/21 07:01:41;;;;;;;1.20;1.10;;;17.50;99.90;;;;;;5039003;28;20454;-43
2021/08/21 07:04:13;;;;;;;1.33;1.23;;;17.60;99.90;;;;;;5024183;28;20434;-42
2021/08/21 07:06:44;;;;;;;1.07;0.97;;;17.60;99.90;;;;;;5027319;28;20449;-42
2021/08/21 07:09:15;;;;;;;1.90;1.30;;;17.60;99.90;;;;;;5043711;28;20491;-43
2021/08/21 07:11:46;;;;;;;1.30;1.20;;;17.60;99.90;;;;;;5043535;28;20476;-44
2021/08/21 07:14:17;;;;;;;1.57;1.10;;;17.60;99.90;;;;;;5062910;28;20456;-41
2021/08/21 07:16:50;;;;;;;1.37;1.27;;;17.60;99.90;;;;;;5050964;28;20481;-39
2021/08/21 07:19:22;;;;;;;1.37;1.27;;;17.50;99.90;;;;;;5042711;28;20481;-39
2021/08/21 07:21:54;;;;;;;1.90;1.17;;;17.60;99.90;;;;;;5042963;28;20430;-40
2021/08/21 07:24:25;;;;;;;1.20;1.20;;;17.60;99.90;;;;;;5055696;28;20464;-45
2021/08/21 07:26:56;;;;;;;1.20;1.10;;;17.60;99.90;;;;;;5042450;28;20485;-42
2021/08/21 07:29:27;;;;;;;1.20;1.10;;;17.70;99.90;;;;;;5043209;28;20473;-40
2021/08/21 07:32:00;;;;;;;1.80;1.27;;;17.60;99.90;;;;;;5044597;28;20449;-42
2021/08/21 07:34:32;;;;;;;1.50;1.40;;;17.60;99.90;;;;;;5063108;28;20439;-43
2021/08/21 07:37:03;;;;;;;1.63;1.53;;;17.60;99.90;;;;;;5045679;28;20499;-42
2021/08/21 07:39:34;;;;;;;1.50;1.40;;;17.60;99.90;;;;;;5043192;28;20506;-40
2021/08/21 07:42:05;;;;;;;1.97;1.40;;;17.60;99.90;;;;;;5042585;28;20461;-42
2021/08/21 07:44:36;;;;;;;3.33;1.50;;;17.60;99.90;;;;;;5047933;28;20444;-42
2021/08/21 07:47:09;;;;;;;1.23;1.13;;;17.60;99.90;;;;;;5048265;28;20476;-41
2021/08/21 07:49:40;;;;;;;1.60;1.20;;;17.60;99.90;;;;;;5052447;28;20445;-44
2021/08/21 07:52:11;;;;;;;2.50;1.20;;;17.60;99.90;;;;;;5046743;28;20449;-42
2021/08/21 07:54:41;;;;;;;1.30;1.20;;;17.60;99.90;;;;;;5043077;28;20477;-41
2021/08/21 07:57:12;;;;;;;1.77;1.47;;;17.70;99.90;;;;;;5042285;28;20533;-48
2021/08/21 07:59:43;;;;;;;1.50;1.30;;;17.60;99.90;;;;;;5042761;28;20538;-44
2021/08/21 08:02:16;;;;;;;1.77;1.67;;;17.60;99.90;;;;;;5041517;28;20446;-40
2021/08/21 08:04:47;;;;;;;2.07;1.87;;;17.60;99.90;;;;;;5042394;28;20551;-40
2021/08/21 08:07:18;;;;;;;1.37;1.23;;;17.60;99.90;;;;;;5042474;28;20491;-41
2021/08/21 08:09:49;;;;;;;1.50;1.40;;;17.50;99.90;;;;;;5039395;28;20481;-43
2021/08/21 08:12:19;;;;;;;1.83;1.60;;;17.50;99.90;;;;;;5044518;28;20505;-39
2021/08/21 08:14:50;;;;;;;2.07;1.43;;;17.50;99.90;;;;;;5044080;28;22029;-41
2021/08/21 08:17:24;;;;;;;1.67;1.40;;;17.40;99.90;;;;;;5048620;28;20492;-41
2021/08/21 08:19:55;;;;;;;1.40;1.30;;;17.30;99.90;;;;;;5054171;28;20476;-39
2021/08/21 08:22:26;;;;;;;3.27;1.70;;;17.30;99.90;;;;;;5061658;28;20440;-45
2021/08/21 08:24:57;;;;;;;2.43;1.40;;;17.20;99.90;;;;;;5045011;28;20517;-47
2021/08/21 08:27:31;;;;;;;2.90;1.73;;;17.10;99.90;;;;;;5051173;28;20449;-43
2021/08/21 08:30:01;;;;;;;1.63;1.30;;;17.00;99.90;;;;;;5052099;28;20454;-46
2021/08/21 08:32:34;;;;;;;1.93;1.57;;;17.00;99.90;;;;;;5041131;28;20449;-39
2021/08/21 08:35:06;;;;;;;1.50;1.30;;;16.90;99.90;;;;;;5057532;28;20942;-44
2021/08/21 08:37:37;;;;;;;1.30;1.20;;;16.80;99.90;;;;;;5048436;28;20501;-40
2021/08/21 08:40:10;;;;;;;1.80;1.30;;;16.70;99.90;;;;;;5025851;28;20533;-41
2021/08/21 08:42:42;;;;;;;2.83;1.70;;;16.80;99.90;;;;;;5042305;28;20453;-43
2021/08/21 08:45:15;;;;;;;1.20;1.10;;;16.70;99.90;;;;;;5041841;28;20453;-40
2021/08/21 08:47:48;;;;;;;1.63;1.17;;;16.80;99.90;;;;;;5056958;28;20497;-42
2021/08/21 08:50:19;;;;;;;1.40;1.20;;;16.80;99.90;;;;;;5039640;28;20449;-38
2021/08/21 08:52:51;;;;;;;1.53;1.43;;;16.70;99.90;;;;;;5041346;28;20437;-39
2021/08/21 08:55:23;;;;;;;1.70;1.60;;;16.80;99.90;;;;;;5041893;28;20453;-39
2021/08/21 08:57:54;;;;;;;1.50;1.40;;;16.80;99.90;;;;;;5039831;28;20481;-39
2021/08/21 09:00:26;;;;;;;1.43;1.30;;;16.80;99.90;;;;;;5047731;28;20506;-41
2021/08/21 09:03:00;;;;;;;1.90;1.27;;;16.80;99.90;;;;;;5036498;28;20834;-40
2021/08/21 09:05:40;;;;;;;3.07;1.50;;;16.90;99.90;;;;;;5041810;28;20561;-43
2021/08/21 09:08:22;;;;;;;1.93;1.13;;;16.90;99.90;;;;;;5053554;28;20446;-42
2021/08/21 09:10:53;;;;;;;1.63;1.37;;;16.90;99.90;;;;;;5041730;28;20460;-46
2021/08/21 09:13:24;;;;;;;1.50;1.30;;;17.00;99.90;;;;;;5040948;28;20522;-46
2021/08/21 09:15:58;;;;;;;1.80;1.20;;;17.00;99.90;;;;;;5041623;28;20586;-40
2021/08/21 09:18:31;;;;;;;1.70;1.60;;;17.10;99.90;;;;;;5041861;28;20481;-45
2021/08/21 09:21:14;;;;;;;1.30;1.20;;;17.10;99.90;;;;;;5040893;28;20468;-40
2021/08/21 09:23:46;;;;;;;1.03;1.03;;;17.10;99.90;;;;;;5041500;28;20469;-44
2021/08/21 09:26:24;;;;;;;1.33;1.20;;;17.10;99.90;;;;;;5041595;28;20453;-40
2021/08/21 09:28:57;;;;;;;1.20;1.10;;;17.10;99.90;;;;;;5057907;28;20511;-41
2021/08/21 09:31:31;;;;;;;1.27;1.17;;;17.20;99.90;;;;;;5040607;28;20492;-44
2021/08/21 09:34:07;;;;;;;1.23;1.00;;;17.20;99.90;;;;;;5037787;28;20454;-40
2021/08/21 09:36:39;;;;;;;1.50;1.40;;;17.20;99.90;;;;;;5044680;28;20462;-44
2021/08/21 09:39:12;;;;;;;0.97;0.97;;;17.20;99.90;;;;;;5041315;28;20494;-40
2021/08/21 09:41:57;;;;;;;1.00;0.90;;;17.30;99.90;;;;;;5037412;28;20453;-41
2021/08/21 09:44:29;;;;;;;1.10;1.03;;;17.20;99.90;;;;;;5053713;28;20525;-39
2021/08/21 09:47:23;;;;;;;1.80;1.40;;;17.20;99.90;;;;;;5044410;28;20445;-39
2021/08/21 09:50:14;;;;;;;1.50;1.40;;;17.00;99.90;;;;;;5060935;28;20579;-39
2021/08/21 09:52:45;;;;;;;1.77;1.43;;;17.00;99.90;;;;;;5041838;28;20449;-41
2021/08/21 09:55:20;;;;;;;1.30;1.20;;;17.00;99.90;;;;;;5060733;28;20456;-38
2021/08/21 09:58:00;;;;;;;2.10;1.40;;;16.90;99.90;;;;;;5051330;28;20519;-39
2021/08/21 10:00:32;;;;;;;1.20;1.10;;;16.90;99.90;;;;;;5044305;28;20448;-40
2021/08/21 10:03:05;;;;;;;1.60;1.50;;;16.90;99.90;;;;;;5039447;28;20520;-40
2021/08/21 10:05:39;;;;;;;2.33;1.30;;;16.80;99.90;;;;;;5040895;28;20500;-39
2021/08/21 10:08:12;;;;;;;2.13;1.60;;;16.70;99.90;;;;;;5040422;28;20464;-40
2021/08/21 10:10:52;;;;;;;1.80;1.27;;;16.70;99.90;;;;;;5040900;28;20974;-45
2021/08/21 10:13:27;;;;;;;2.50;1.63;;;16.70;99.90;;;;;;5051108;28;20488;-46
2021/08/21 10:16:03;;;;;;;1.70;1.60;;;16.60;99.90;;;;;;5055581;28;20454;-48
2021/08/21 10:18:34;;;;;;;2.40;1.20;;;16.60;99.90;;;;;;5041324;28;20536;-47
2021/08/21 10:21:07;;;;;;;1.70;1.60;;;16.70;99.90;;;;;;5041926;28;20484;-42
2021/08/21 10:23:44;;;;;;;1.37;1.27;;;16.70;99.90;;;;;;5048686;28;20486;-48
2021/08/21 10:26:22;;;;;;;0.90;0.90;;;16.70;99.90;;;;;;5052260;28;20465;-47
2021/08/21 10:28:54;;;;;;;1.70;1.60;;;16.60;99.90;;;;;;5046530;28;20529;-46
2021/08/21 10:31:44;;;;;;;1.77;1.60;;;16.60;99.90;;;;;;5056676;28;20464;-49
2021/08/21 10:34:16;;;;;;;1.87;1.40;;;16.60;99.90;;;;;;5055374;28;20536;-40
2021/08/21 10:36:51;;;;;;;1.73;1.63;;;16.60;99.90;;;;;;5037460;28;20448;-46
2021/08/21 10:39:26;;;;;;;1.70;1.60;;;16.50;99.90;;;;;;5098434;28;20500;-46
2021/08/21 10:41:57;;;;;;;3.13;1.40;;;16.60;99.90;;;;;;5050695;28;20452;-47
2021/08/21 10:44:50;;;;;;;1.73;1.63;;;16.50;99.90;;;;;;5060663;28;20453;-46
2021/08/21 10:47:39;;;;;;;1.97;1.80;;;16.50;99.90;;;;;;5044617;28;20457;-43
2021/08/21 10:50:33;;;;;;;1.57;1.33;;;16.50;99.90;;;;;;5038979;28;20457;-46
2021/08/21 10:53:11;;;;;;;2.03;1.83;;;16.60;99.90;;;;;;5043644;28;20453;-49
2021/08/21 10:55:44;;;;;;;1.73;1.60;;;16.60;99.90;;;;;;5060827;28;20484;-49
2021/08/21 10:58:18;;;;;;;1.50;1.40;;;16.60;99.90;;;;;;5050880;28;20473;-46
2021/08/21 11:00:54;;;;;;;1.47;1.37;;;16.60;99.90;;;;;;5054187;28;20521;-40
2021/08/21 11:03:44;;;;;;;1.90;1.80;;;16.60;99.90;;;;;;5043262;28;20453;-44
2021/08/21 11:06:18;;;;;;;1.50;1.37;;;16.50;99.90;;;;;;5043090;28;20470;-45
2021/08/21 11:08:58;;;;;;;1.67;1.57;;;16.50;99.90;;;;;;5043330;28;20458;-47
2021/08/21 11:11:34;;;;;;;1.63;1.53;;;16.50;99.90;;;;;;5043579;28;20453;-48
2021/08/21 11:14:07;;;;;;;2.20;1.90;;;16.40;99.90;;;;;;5043959;28;20453;-42
2021/08/21 11:16:48;;;;;;;1.40;1.30;;;16.40;99.90;;;;;;5042934;28;20954;-46
2021/08/21 11:19:38;;;;;;;1.97;1.50;;;16.30;99.90;;;;;;5056350;28;20545;-48
2021/08/21 11:22:22;;;;;;;2.10;1.30;;;16.30;99.90;;;;;;5035218;28;20478;-48
2021/08/21 11:25:12;;;;;;;2.03;1.77;;;16.30;99.90;;;;;;5058602;28;20474;-48
2021/08/21 11:27:44;;;;;;;3.07;1.80;;;16.30;99.90;;;;;;5055073;28;20917;-49
2021/08/21 11:30:26;;;;;;;2.30;2.10;;;16.30;99.90;;;;;;5040888;28;20464;-42
2021/08/21 11:33:17;;;;;;;1.30;1.20;;;16.40;99.90;;;;;;5051015;28;20448;-47
2021/08/21 11:35:51;;;;;;;1.53;1.43;;;16.40;99.90;;;;;;5052511;28;20445;-44
2021/08/21 11:38:32;;;;;;;2.43;1.60;;;16.40;99.90;;;;;;5036222;28;20498;-46
2021/08/21 11:41:12;;;;;;;1.60;1.50;;;16.40;99.90;;;;;;5044870;28;20513;-43
2021/08/21 11:43:44;;;;;;;2.60;1.83;;;16.50;99.90;;;;;;5040190;28;20453;-46
2021/08/21 11:46:26;;;;;;;1.60;1.50;;;16.50;99.90;;;;;;5062410;28;20452;-46
2021/08/21 11:49:08;;;;;;;1.70;1.60;;;16.50;99.90;;;;;;5049446;28;20485;-46
2021/08/21 11:51:39;;;;;;;2.60;2.40;;;16.50;99.90;;;;;;5049202;28;20448;-43
2021/08/21 11:54:10;;;;;;;2.40;2.20;;;16.50;99.90;;;;;;5050546;28;20481;-40
2021/08/21 11:56:58;;;;;;;1.60;1.50;;;16.50;99.90;;;;;;5053625;28;20452;-40
2021/08/21 11:59:30;;;;;;;1.80;1.30;;;16.50;99.90;;;;;;5042842;28;20560;-44
2021/08/21 12:02:04;;;;;;;2.03;1.83;;;16.50;99.90;;;;;;5044004;28;20456;-44
2021/08/21 12:04:36;;;;;;;1.63;1.53;;;16.60;99.90;;;;;;5044507;28;20788;-45
2021/08/21 12:07:07;;;;;;;2.80;1.60;;;16.50;99.90;;;;;;5041961;28;20548;-45
2021/08/21 12:09:38;;;;;;;2.03;1.93;;;16.40;99.90;;;;;;5043700;28;20457;-41
2021/08/21 12:12:11;;;;;;;3.50;1.43;;;16.40;99.90;;;;;;5054217;28;20535;-47
2021/08/21 12:14:42;;;;;;;1.70;1.60;;;16.30;99.90;;;;;;5043026;28;20446;-43
2021/08/21 12:17:13;;;;;;;2.80;1.50;;;16.40;99.90;;;;;;5040586;28;20457;-45
2021/08/21 12:19:46;;;;;;;1.57;1.47;;;16.30;99.90;;;;;;5046820;28;20600;-43
2021/08/21 12:22:17;;;;;;;1.70;1.60;;;16.30;99.90;;;;;;5051878;28;20449;-49
2021/08/21 12:24:55;;;;;;;1.70;1.60;;;16.40;99.90;;;;;;5042127;28;20473;-42
2021/08/21 12:27:29;;;;;;;1.97;1.60;;;16.40;99.90;;;;;;5042630;28;20434;-43
2021/08/21 12:30:12;;;;;;;1.70;1.60;;;16.30;99.90;;;;;;5052983;28;20452;-46
2021/08/21 12:32:44;;;;;;;1.87;1.73;;;16.30;99.90;;;;;;5040260;28;20464;-43
2021/08/21 12:35:18;;;;;;;1.73;1.63;;;16.30;99.90;;;;;;5042091;28;20492;-46
2021/08/21 12:38:04;;;;;;;1.83;1.73;;;16.40;99.90;;;;;;5046128;28;20453;-41
2021/08/21 12:40:36;;;;;;;1.57;1.47;;;16.40;99.90;;;;;;5061355;28;20484;-43
2021/08/21 12:43:09;;;;;;;1.60;1.50;;;16.30;99.90;;;;;;5042887;28;20476;-45
2021/08/21 12:45:45;;;;;;;2.27;2.07;;;16.30;99.90;;;;;;5041977;28;20449;-42
2021/08/21 12:48:15;;;;;;;2.37;1.90;;;16.40;99.90;;;;;;5054440;28;20518;-43
2021/08/21 12:51:00;;;;;;;2.23;2.03;;;16.30;99.90;;;;;;5060112;28;20818;-41
2021/08/21 12:53:31;;;;;;;2.50;1.80;;;16.10;99.90;;;;;;5046812;28;20945;-43
2021/08/21 12:56:13;;;;;;;2.30;1.80;;;16.10;99.90;;;;;;5050470;28;20453;-43
2021/08/21 12:59:08;;;;;;;1.77;1.67;;;16.00;99.90;;;;;;5033208;28;20485;-43
2021/08/21 13:01:40;;;;;;;2.37;1.93;;;16.00;99.90;;;;;;5043388;28;20905;-44
2021/08/21 13:04:12;;;;;;;1.47;1.37;;;15.90;99.90;;;;;;5046707;28;20441;-48
2021/08/21 13:06:59;;;;;;;1.80;1.60;;;15.90;99.90;;;;;;5039233;28;20445;-42
2021/08/21 13:09:30;;;;;;;2.10;1.90;;;15.90;99.90;;;;;;5026483;28;20452;-42
2021/08/21 13:12:01;;;;;;;2.00;1.77;;;15.90;99.90;;;;;;5048932;28;20448;-43
2021/08/21 13:14:35;;;;;;;2.33;1.83;;;15.90;99.90;;;;;;5047566;28;20529;-41
2021/08/21 13:17:07;;;;;;;3.33;2.30;;;15.90;99.90;;;;;;5040633;28;20450;-46
2021/08/21 13:19:39;;;;;;;3.57;1.83;;;15.90;99.90;;;;;;5036279;28;20517;-46